createdAt,value
2023-01-06T00:01:15.769Z,10.77
2023-01-06T00:03:44.082Z,10.85
2023-01-06T00:06:13.236Z,10.73
2023-01-06T00:08:41.261Z,10.62
2023-01-06T00:11:10.220Z,10.72
2023-01-06T00:13:38.769Z,10.75
2023-01-06T00:16:07.810Z,10.77
2023-01-06T00:18:37.216Z,10.89
2023-01-06T00:21:05.951Z,10.76
2023-01-06T00:23:33.848Z,10.87
2023-01-06T00:26:01.745Z,10.70
2023-01-06T00:28:29.810Z,10.66
2023-01-06T00:30:57.766Z,10.32
2023-01-06T00:33:26.025Z,10.77
2023-01-06T00:35:59.768Z,10.71
2023-01-06T00:38:27.503Z,10.64
2023-01-06T00:40:55.135Z,10.51
2023-01-06T00:43:22.814Z,10.53
2023-01-06T00:45:50.579Z,10.44
2023-01-06T00:48:18.673Z,10.30
2023-01-06T00:50:46.393Z,10.37
2023-01-06T00:53:16.829Z,10.43
2023-01-06T00:55:44.484Z,10.45
2023-01-06T00:58:12.140Z,10.46
2023-01-06T01:00:40.047Z,10.31
2023-01-06T01:03:07.877Z,10.37
2023-01-06T01:05:35.567Z,10.41
2023-01-06T01:08:03.257Z,10.38
2023-01-06T01:10:32.274Z,10.44
2023-01-06T01:13:00.086Z,10.37
2023-01-06T01:15:27.950Z,10.52
2023-01-06T01:17:55.732Z,10.58
2023-01-06T01:20:23.735Z,10.53
2023-01-06T01:22:51.458Z,10.64
2023-01-06T01:25:19.151Z,10.60
2023-01-06T01:27:48.165Z,10.64
2023-01-06T01:30:15.900Z,10.75
2023-01-06T01:32:43.557Z,10.74
2023-01-06T01:35:11.825Z,10.68
2023-01-06T01:37:40.434Z,10.70
2023-01-06T01:40:09.406Z,10.68
2023-01-06T01:42:37.135Z,10.80
2023-01-06T01:45:07.933Z,10.72
2023-01-06T01:47:49.995Z,10.67
2023-01-06T01:50:25.916Z,10.71
2023-01-06T01:52:57.329Z,10.65
2023-01-06T01:55:28.162Z,10.65
2023-01-06T01:58:00.595Z,10.71
2023-01-06T02:00:29.787Z,10.70
2023-01-06T02:02:58.211Z,10.83
2023-01-06T02:05:28.296Z,10.72
2023-01-06T02:07:58.327Z,10.60
2023-01-06T02:10:26.302Z,10.67
2023-01-06T02:12:58.831Z,10.68
2023-01-06T02:15:30.069Z,10.63
2023-01-06T02:18:26.881Z,10.73
2023-01-06T02:21:19.043Z,10.67
2023-01-06T02:24:23.891Z,10.70
2023-01-06T02:27:11.437Z,10.72
2023-01-06T02:30:01.379Z,10.70
2023-01-06T02:33:03.225Z,10.55
2023-01-06T02:35:49.478Z,10.52
2023-01-06T02:38:27.984Z,10.56
2023-01-06T02:41:10.823Z,10.52
2023-01-06T02:43:47.466Z,10.54
2023-01-06T02:46:28.658Z,10.57
2023-01-06T02:49:12.029Z,10.48
2023-01-06T02:51:50.305Z,10.53
2023-01-06T02:54:24.535Z,10.53
2023-01-06T02:57:01.662Z,10.57
2023-01-06T02:59:34.984Z,10.46
2023-01-06T03:02:05.636Z,10.43
2023-01-06T03:04:40.082Z,10.29
2023-01-06T03:07:09.744Z,10.29
2023-01-06T03:09:39.822Z,10.38
2023-01-06T03:12:15.351Z,10.37
2023-01-06T03:14:47.491Z,10.30
2023-01-06T03:17:15.552Z,10.43
2023-01-06T03:19:45.798Z,10.45
2023-01-06T03:22:16.863Z,10.44
2023-01-06T03:24:46.295Z,10.47
2023-01-06T03:27:16.241Z,10.35
2023-01-06T03:29:44.245Z,10.27
2023-01-06T03:32:19.393Z,10.36
2023-01-06T03:35:09.527Z,10.17
2023-01-06T03:37:51.290Z,10.40
2023-01-06T03:40:29.711Z,10.27
2023-01-06T03:43:14.031Z,10.18
2023-01-06T03:46:10.114Z,10.16
2023-01-06T03:48:54.003Z,10.32
2023-01-06T03:51:37.930Z,10.28
2023-01-06T03:54:14.644Z,10.26
2023-01-06T03:56:46.084Z,10.34
2023-01-06T03:59:19.291Z,10.29
2023-01-06T04:01:51.161Z,10.37
2023-01-06T04:04:20.556Z,10.28
2023-01-06T04:06:50.429Z,10.28
2023-01-06T04:09:18.243Z,10.27
2023-01-06T04:12:04.178Z,10.28
2023-01-06T04:14:34.887Z,10.37
2023-01-06T04:17:03.396Z,10.27
2023-01-06T04:19:31.245Z,10.30
2023-01-06T04:22:01.026Z,10.37
2023-01-06T04:24:31.399Z,10.36
2023-01-06T04:26:59.064Z,10.33
2023-01-06T04:29:27.164Z,10.34
2023-01-06T04:31:56.859Z,10.38
2023-01-06T04:34:24.719Z,10.42
2023-01-06T04:36:54.030Z,10.35
2023-01-06T04:39:23.040Z,10.37
2023-01-06T04:41:50.684Z,10.33
2023-01-06T04:44:18.314Z,10.40
2023-01-06T04:46:45.977Z,10.39
2023-01-06T04:49:13.624Z,10.37
2023-01-06T04:51:41.353Z,10.42
2023-01-06T04:54:08.991Z,10.35
2023-01-06T04:56:37.992Z,10.36
2023-01-06T04:59:05.665Z,10.37
2023-01-06T05:01:33.527Z,10.35
2023-01-06T05:04:02.226Z,10.35
2023-01-06T05:06:30.014Z,10.41
2023-01-06T05:08:57.684Z,10.35
2023-01-06T05:11:27.177Z,10.44
2023-01-06T05:13:56.129Z,10.46
2023-01-06T05:16:26.943Z,10.48
2023-01-06T05:18:55.658Z,10.39
2023-01-06T05:21:24.751Z,10.42
2023-01-06T05:23:53.600Z,10.37
2023-01-06T05:26:23.559Z,10.34
2023-01-06T05:28:51.721Z,10.24
2023-01-06T05:31:21.232Z,10.19
2023-01-06T05:33:48.852Z,10.22
2023-01-06T05:36:17.690Z,10.08
2023-01-06T05:38:46.323Z,10.10
2023-01-06T05:41:13.961Z,10.11
2023-01-06T05:43:42.634Z,10.10
2023-01-06T05:46:12.094Z,9.97
2023-01-06T05:48:41.706Z,10.06
2023-01-06T05:51:12.735Z,10.00
2023-01-06T05:53:41.947Z,10.07
2023-01-06T05:56:11.513Z,10.02
2023-01-06T05:58:41.014Z,10.01
2023-01-06T06:01:17.243Z,10.07
2023-01-06T06:03:47.158Z,9.98
2023-01-06T06:06:14.821Z,10.05
2023-01-06T06:08:42.425Z,10.02
2023-01-06T06:11:12.077Z,9.97
2023-01-06T06:13:40.665Z,9.94
2023-01-06T06:16:10.259Z,9.86
2023-01-06T06:18:42.696Z,9.90
2023-01-06T06:21:13.277Z,9.92
2023-01-06T06:23:41.438Z,9.87
2023-01-06T06:26:11.177Z,9.90
2023-01-06T06:28:39.845Z,9.86
2023-01-06T06:31:07.978Z,9.81
2023-01-06T06:33:36.331Z,9.76
2023-01-06T06:36:06.108Z,9.73
2023-01-06T06:38:35.094Z,9.24
2023-01-06T06:41:02.752Z,9.72
2023-01-06T06:43:30.483Z,9.70
2023-01-06T06:45:58.261Z,9.70
2023-01-06T06:48:26.200Z,9.66
2023-01-06T06:51:00.383Z,9.70
2023-01-06T06:53:28.476Z,9.65
2023-01-06T06:55:58.476Z,9.65
2023-01-06T06:58:26.216Z,9.67
2023-01-06T07:00:54.228Z,9.67
2023-01-06T07:03:22.806Z,9.56
2023-01-06T07:05:52.805Z,9.65
2023-01-06T07:08:20.621Z,9.73
2023-01-06T07:10:48.315Z,9.60
2023-01-06T07:13:17.284Z,9.65
2023-01-06T07:15:45.119Z,9.67
2023-01-06T07:18:12.864Z,9.63
2023-01-06T07:20:40.559Z,9.64
2023-01-06T07:23:08.250Z,9.73
2023-01-06T07:25:35.935Z,9.72
2023-01-06T07:28:06.968Z,9.75
2023-01-06T07:30:37.396Z,9.78
2023-01-06T07:33:05.692Z,9.66
2023-01-06T07:35:33.314Z,9.69
2023-01-06T07:38:05.204Z,9.08
2023-01-06T07:40:32.879Z,9.69
2023-01-06T07:43:04.433Z,9.63
2023-01-06T07:45:32.346Z,9.71
2023-01-06T07:48:01.612Z,9.71
2023-01-06T07:50:29.608Z,9.77
2023-01-06T07:52:58.908Z,9.73
2023-01-06T07:55:26.615Z,9.84
2023-01-06T07:57:54.626Z,9.87
2023-01-06T08:00:22.573Z,9.90
2023-01-06T08:02:50.401Z,9.88
2023-01-06T08:05:19.849Z,9.89
2023-01-06T08:07:47.504Z,9.95
2023-01-06T08:10:15.298Z,9.85
2023-01-06T08:12:43.263Z,9.82
2023-01-06T08:15:11.621Z,9.65
2023-01-06T08:17:39.215Z,9.60
2023-01-06T08:20:07.767Z,9.66
2023-01-06T08:22:36.992Z,9.64
2023-01-06T08:25:04.959Z,9.49
2023-01-06T08:27:32.647Z,9.62
2023-01-06T08:30:00.345Z,9.55
2023-01-06T08:32:28.031Z,9.42
2023-01-06T08:34:56.180Z,9.33
2023-01-06T08:37:23.964Z,9.44
2023-01-06T08:39:52.960Z,9.47
2023-01-06T08:42:20.751Z,9.52
2023-01-06T08:44:48.476Z,9.55
2023-01-06T08:47:16.126Z,9.53
2023-01-06T08:49:43.696Z,9.62
2023-01-06T08:52:11.401Z,9.69
2023-01-06T08:54:39.093Z,9.82
2023-01-06T08:57:09.035Z,9.82
2023-01-06T08:59:37.102Z,9.91
2023-01-06T09:02:05.067Z,9.99
2023-01-06T09:04:32.762Z,10.03
2023-01-06T09:07:00.598Z,10.13
2023-01-06T09:09:28.294Z,10.02
2023-01-06T09:11:56.042Z,9.99
2023-01-06T09:14:25.035Z,9.99
2023-01-06T09:16:52.759Z,9.98
2023-01-06T09:19:20.963Z,10.09
2023-01-06T09:21:48.634Z,10.10
2023-01-06T09:24:16.746Z,9.96
2023-01-06T09:26:44.524Z,10.09
2023-01-06T09:29:12.190Z,10.08
2023-01-06T09:31:41.232Z,10.15
2023-01-06T09:34:09.487Z,10.11
2023-01-06T09:36:37.130Z,10.02
2023-01-06T09:39:04.961Z,9.90
2023-01-06T09:42:01.633Z,9.95
2023-01-06T09:44:32.660Z,10.14
2023-01-06T09:47:03.842Z,10.10
2023-01-06T09:49:42.541Z,9.85
2023-01-06T09:52:18.255Z,10.04
2023-01-06T09:54:53.072Z,10.20
2023-01-06T09:57:29.850Z,10.27
2023-01-06T10:00:00.957Z,9.85
2023-01-06T10:02:34.591Z,10.22
2023-01-06T10:05:02.452Z,10.24
2023-01-06T10:07:39.991Z,10.33
2023-01-06T10:10:22.011Z,10.22
2023-01-06T10:13:04.458Z,10.26
2023-01-06T10:15:41.500Z,10.36
2023-01-06T10:18:25.036Z,10.42
2023-01-06T10:21:01.552Z,10.37
2023-01-06T10:23:49.033Z,10.24
2023-01-06T10:26:26.751Z,10.32
2023-01-06T10:28:58.239Z,10.42
2023-01-06T10:31:29.641Z,10.26
2023-01-06T10:33:59.763Z,10.16
2023-01-06T10:36:32.257Z,10.16
2023-01-06T10:39:02.003Z,10.27
2023-01-06T10:41:41.789Z,10.35
2023-01-06T10:44:11.909Z,10.34
2023-01-06T10:46:40.433Z,10.29
2023-01-06T10:49:16.488Z,10.30
2023-01-06T10:51:48.939Z,10.51
2023-01-06T10:54:21.994Z,10.54
2023-01-06T10:56:54.942Z,10.44
2023-01-06T10:59:22.707Z,10.53
2023-01-06T11:01:51.832Z,10.42
2023-01-06T11:04:21.587Z,10.46
2023-01-06T11:06:52.208Z,10.61
2023-01-06T11:09:27.236Z,10.61
2023-01-06T11:11:57.181Z,10.55
2023-01-06T11:14:29.564Z,10.60
2023-01-06T11:16:59.370Z,10.49
2023-01-06T11:19:37.008Z,10.52
2023-01-06T11:22:05.768Z,10.42
2023-01-06T11:24:33.733Z,10.37
2023-01-06T11:27:09.830Z,10.23
2023-01-06T11:29:37.415Z,10.38
2023-01-06T11:32:14.202Z,10.33
2023-01-06T11:34:52.482Z,10.35
2023-01-06T11:37:31.354Z,10.31
2023-01-06T11:40:05.642Z,10.45
2023-01-06T11:45:08.077Z,10.58
2023-01-06T11:47:35.980Z,10.58
2023-01-06T11:50:06.304Z,10.77
2023-01-06T11:52:35.345Z,10.82
2023-01-06T11:55:20.141Z,10.87
2023-01-06T11:57:56.870Z,10.92
2023-01-06T12:00:48.921Z,10.82
2023-01-06T12:03:25.495Z,10.60
2023-01-06T12:06:01.510Z,10.72
2023-01-06T12:08:34.182Z,10.71
2023-01-06T12:11:08.339Z,10.70
2023-01-06T12:13:44.188Z,10.86
2023-01-06T12:16:17.407Z,10.80
2023-01-06T12:18:45.221Z,10.68
2023-01-06T12:21:20.206Z,10.86
2023-01-06T12:23:49.888Z,10.68
2023-01-06T12:26:23.954Z,10.75
2023-01-06T12:28:55.957Z,10.90
2023-01-06T12:31:29.371Z,10.91
2023-01-06T12:34:01.999Z,10.94
2023-01-06T12:36:38.630Z,10.90
2023-01-06T12:39:13.723Z,10.62
2023-01-06T12:41:48.767Z,10.79
2023-01-06T12:44:24.717Z,10.93
2023-01-06T12:47:00.045Z,10.98
2023-01-06T12:49:36.283Z,10.93
2023-01-06T12:52:09.959Z,11.05
2023-01-06T12:54:38.603Z,10.88
2023-01-06T12:57:21.244Z,10.94
2023-01-06T13:00:04.519Z,10.52
2023-01-06T13:02:53.137Z,10.72
2023-01-06T13:05:44.827Z,10.94
2023-01-06T13:08:27.511Z,10.99
2023-01-06T13:11:05.488Z,10.96
2023-01-06T13:13:49.909Z,10.90
2023-01-06T13:16:23.243Z,11.05
2023-01-06T13:19:01.995Z,11.19
2023-01-06T13:21:33.140Z,11.11
2023-01-06T13:24:22.268Z,11.00
2023-01-06T13:27:17.205Z,11.09
2023-01-06T13:29:57.997Z,11.11
2023-01-06T13:32:43.086Z,10.97
2023-01-06T13:35:44.793Z,11.01
2023-01-06T13:38:48.657Z,11.09
2023-01-06T13:41:21.867Z,11.14
2023-01-06T13:43:52.127Z,11.20
2023-01-06T13:46:22.820Z,11.15
2023-01-06T13:48:53.554Z,11.22
2023-01-06T13:51:25.808Z,10.88
2023-01-06T13:53:54.713Z,10.90
2023-01-06T13:56:29.533Z,10.86
2023-01-06T13:59:20.368Z,10.97
2023-01-06T14:01:48.861Z,11.14
2023-01-06T14:04:45.846Z,11.01
2023-01-06T14:07:14.887Z,11.16
2023-01-06T14:09:49.740Z,11.05
2023-01-06T14:12:22.856Z,11.05
2023-01-06T14:14:59.435Z,11.17
2023-01-06T14:17:30.888Z,11.09
2023-01-06T14:19:59.201Z,11.06
2023-01-06T14:22:29.619Z,11.02
2023-01-06T14:25:00.903Z,11.12
2023-01-06T14:28:10.099Z,10.88
2023-01-06T14:30:38.062Z,11.10
2023-01-06T14:33:24.664Z,11.15
2023-01-06T14:36:02.719Z,11.12
2023-01-06T14:38:35.905Z,11.12
2023-01-06T14:41:06.026Z,11.05
2023-01-06T14:43:43.799Z,11.13
2023-01-06T14:46:19.558Z,11.07
2023-01-06T14:48:56.245Z,10.98
2023-01-06T14:51:25.404Z,10.96
2023-01-06T14:53:59.688Z,10.90
2023-01-06T14:56:34.051Z,10.78
2023-01-06T14:59:15.443Z,10.82
2023-01-06T15:01:44.968Z,10.74
2023-01-06T15:04:27.845Z,10.70
2023-01-06T15:07:00.365Z,10.86
2023-01-06T15:09:28.518Z,10.82
2023-01-06T15:11:56.609Z,10.68
2023-01-06T15:14:27.398Z,10.85
2023-01-06T15:16:56.916Z,10.83
2023-01-06T15:19:25.605Z,10.83
2023-01-06T15:21:54.586Z,10.56
2023-01-06T15:24:24.361Z,10.81
2023-01-06T15:26:53.564Z,10.87
2023-01-06T15:29:23.181Z,10.93
2023-01-06T15:31:53.864Z,10.79
2023-01-06T15:34:24.888Z,10.68
2023-01-06T15:36:55.261Z,10.89
2023-01-06T15:39:28.013Z,10.81
2023-01-06T15:41:57.320Z,10.74
2023-01-06T15:44:29.934Z,10.87
2023-01-06T15:47:07.704Z,10.81
2023-01-06T15:49:39.219Z,10.32
2023-01-06T15:52:23.289Z,10.62
2023-01-06T15:54:52.537Z,10.82
2023-01-06T15:57:20.576Z,10.65
2023-01-06T15:59:57.162Z,10.46
2023-01-06T16:02:29.932Z,10.45
2023-01-06T16:04:59.362Z,10.47
2023-01-06T16:07:48.248Z,10.51
2023-01-06T16:10:33.309Z,10.40
2023-01-06T16:13:19.837Z,10.33
2023-01-06T16:15:49.270Z,10.23
2023-01-06T16:18:27.298Z,10.49
2023-01-06T16:20:55.409Z,10.44
2023-01-06T16:23:30.248Z,10.37
2023-01-06T16:26:11.534Z,10.55
2023-01-06T16:28:47.636Z,10.56
2023-01-06T16:31:28.509Z,10.52
2023-01-06T16:34:15.050Z,10.50
2023-01-06T16:36:42.923Z,10.35
2023-01-06T16:39:10.933Z,10.44
2023-01-06T16:41:38.600Z,10.38
2023-01-06T16:44:06.219Z,10.45
2023-01-06T16:46:33.901Z,10.49
2023-01-06T16:49:11.354Z,10.41
2023-01-06T16:51:39.672Z,10.44
2023-01-06T16:54:11.599Z,10.43
2023-01-06T16:56:39.716Z,10.51
2023-01-06T16:59:12.345Z,10.18
2023-01-06T17:01:40.456Z,10.65
2023-01-06T17:04:12.269Z,10.55
2023-01-06T17:06:41.545Z,10.43
2023-01-06T17:09:18.097Z,10.50
2023-01-06T17:11:46.692Z,10.52
2023-01-06T17:14:16.493Z,10.48
2023-01-06T17:16:47.204Z,10.59
2023-01-06T17:19:20.423Z,10.28
2023-01-06T17:21:49.569Z,10.50
2023-01-06T17:24:20.877Z,10.62
2023-01-06T17:26:50.906Z,10.41
2023-01-06T17:29:21.164Z,10.43
2023-01-06T17:31:51.058Z,10.47
2023-01-06T17:34:24.562Z,10.48
2023-01-06T17:36:56.295Z,10.54
2023-01-06T17:39:27.001Z,10.45
2023-01-06T17:42:02.473Z,10.38
2023-01-06T17:44:36.253Z,10.29
2023-01-06T17:47:07.061Z,10.48
2023-01-06T17:49:36.996Z,10.56
2023-01-06T17:52:15.562Z,10.61
2023-01-06T17:55:08.192Z,10.58
2023-01-06T17:57:38.660Z,10.49
2023-01-06T18:00:17.308Z,10.44
2023-01-06T18:02:48.506Z,10.35
2023-01-06T18:05:58.674Z,10.49
2023-01-06T18:08:27.751Z,10.53
2023-01-06T18:10:58.785Z,10.37
2023-01-06T18:13:34.329Z,10.62
2023-01-06T18:16:02.895Z,10.47
2023-01-06T18:18:36.426Z,10.57
2023-01-06T18:21:24.916Z,10.56
2023-01-06T18:23:53.716Z,10.55
2023-01-06T18:26:36.870Z,10.46
2023-01-06T18:29:14.673Z,10.48
2023-01-06T18:31:43.126Z,10.58
2023-01-06T18:34:29.657Z,10.52
2023-01-06T18:37:00.218Z,10.62
2023-01-06T18:39:30.158Z,10.57
2023-01-06T18:42:06.035Z,10.57
2023-01-06T18:44:34.484Z,10.68
2023-01-06T18:47:02.216Z,10.61
2023-01-06T18:49:33.650Z,10.65
2023-01-06T18:52:24.640Z,10.58
2023-01-06T18:54:52.417Z,10.68
2023-01-06T18:57:29.182Z,10.55
2023-01-06T18:59:59.886Z,9.95
2023-01-06T19:02:37.967Z,10.26
2023-01-06T19:05:11.664Z,10.57
2023-01-06T19:07:40.730Z,10.40
2023-01-06T19:10:24.941Z,10.52
2023-01-06T19:12:52.642Z,10.40
2023-01-06T19:15:23.852Z,10.48
2023-01-06T19:17:53.773Z,10.32
2023-01-06T19:20:25.753Z,10.48
2023-01-06T19:22:56.846Z,10.58
2023-01-06T19:25:32.911Z,10.37
2023-01-06T19:28:03.642Z,10.34
2023-01-06T19:30:44.318Z,10.43
2023-01-06T19:33:34.829Z,10.53
2023-01-06T19:36:38.401Z,10.58
2023-01-06T19:39:30.611Z,10.56
2023-01-06T19:42:14.398Z,10.35
2023-01-06T19:44:42.430Z,10.52
2023-01-06T19:47:18.807Z,10.55
2023-01-06T19:49:52.786Z,10.44
2023-01-06T19:52:29.794Z,10.42
2023-01-06T19:55:16.006Z,10.33
2023-01-06T19:57:48.716Z,10.33
2023-01-06T20:00:25.817Z,10.41
2023-01-06T20:02:57.340Z,10.43
2023-01-06T20:05:25.630Z,10.55
2023-01-06T20:07:53.358Z,10.34
2023-01-06T20:10:22.390Z,10.23
2023-01-06T20:12:50.452Z,10.41
2023-01-06T20:15:18.339Z,10.42
2023-01-06T20:17:45.999Z,10.30
2023-01-06T20:20:13.657Z,10.46
2023-01-06T20:22:41.348Z,10.52
2023-01-06T20:25:09.633Z,10.50
2023-01-06T20:27:38.640Z,10.43
2023-01-06T20:30:07.215Z,10.51
2023-01-06T20:32:34.903Z,10.37
2023-01-06T20:35:02.559Z,10.38
2023-01-06T20:37:31.809Z,10.48
2023-01-06T20:40:00.551Z,10.35
2023-01-06T20:42:28.398Z,10.31
2023-01-06T20:44:57.459Z,10.29
2023-01-06T20:47:25.114Z,10.49
2023-01-06T20:49:53.237Z,10.36
2023-01-06T20:52:20.897Z,10.45
2023-01-06T20:54:48.640Z,10.47
2023-01-06T20:57:16.297Z,10.38
2023-01-06T20:59:43.940Z,10.32
2023-01-06T21:02:13.047Z,10.36
2023-01-06T21:04:40.747Z,10.52
2023-01-06T21:07:08.379Z,10.54
2023-01-06T21:09:36.079Z,10.51
2023-01-06T21:12:03.823Z,10.49
2023-01-06T21:14:32.284Z,10.45
2023-01-06T21:16:59.906Z,10.33
2023-01-06T21:19:29.134Z,10.48
2023-01-06T21:21:56.842Z,10.51
2023-01-06T21:24:25.292Z,10.49
2023-01-06T21:26:53.354Z,10.36
2023-01-06T21:29:21.266Z,10.54
2023-01-06T21:31:48.998Z,10.40
2023-01-06T21:34:16.615Z,10.26
2023-01-06T21:36:45.715Z,10.44
2023-01-06T21:39:13.440Z,10.40
2023-01-06T21:41:58.921Z,10.31
2023-01-06T21:44:26.542Z,10.48
2023-01-06T21:46:54.199Z,10.22
2023-01-06T21:49:21.826Z,10.35
2023-01-06T21:51:52.084Z,10.52
2023-01-06T21:54:19.847Z,10.51
2023-01-06T21:56:47.700Z,10.61
2023-01-06T21:59:15.383Z,10.43
2023-01-06T22:01:43.122Z,10.41
2023-01-06T22:04:10.790Z,10.63
2023-01-06T22:06:42.688Z,10.53
2023-01-06T22:09:15.835Z,10.62
2023-01-06T22:11:44.627Z,10.68
2023-01-06T22:14:14.014Z,10.48
2023-01-06T22:16:42.425Z,10.59
2023-01-06T22:19:12.416Z,10.40
2023-01-06T22:21:42.431Z,10.55
2023-01-06T22:24:15.122Z,10.43
2023-01-06T22:26:42.854Z,10.38
2023-01-06T22:29:11.005Z,10.30
2023-01-06T22:31:38.838Z,10.38
2023-01-06T22:34:07.756Z,10.43
2023-01-06T22:36:35.845Z,10.37
2023-01-06T22:39:03.590Z,10.25
2023-01-06T22:41:32.659Z,10.31
2023-01-06T22:44:00.273Z,10.35
2023-01-06T22:46:28.222Z,10.27
2023-01-06T22:48:55.883Z,10.26
2023-01-06T22:51:23.572Z,10.38
2023-01-06T22:53:51.807Z,10.32
2023-01-06T22:56:19.454Z,10.39
2023-01-06T22:58:48.425Z,10.28
2023-01-06T23:01:16.560Z,10.45
2023-01-06T23:03:44.259Z,10.43
2023-01-06T23:06:13.765Z,10.46
2023-01-06T23:08:58.427Z,10.36
2023-01-06T23:11:28.322Z,10.33
2023-01-06T23:13:58.608Z,10.38
2023-01-06T23:16:28.902Z,10.49
2023-01-06T23:18:56.655Z,10.34
2023-01-06T23:21:26.562Z,10.49
2023-01-06T23:23:54.773Z,10.43
2023-01-06T23:26:25.044Z,10.36
2023-01-06T23:28:53.023Z,10.34
2023-01-06T23:31:24.521Z,10.36
2023-01-06T23:33:55.702Z,10.36
2023-01-06T23:36:24.524Z,10.22
2023-01-06T23:38:52.707Z,10.42
2023-01-06T23:41:22.496Z,9.74
2023-01-06T23:43:51.218Z,10.42
2023-01-06T23:46:20.627Z,10.40
2023-01-06T23:48:50.534Z,10.49
2023-01-06T23:51:18.887Z,10.41
2023-01-06T23:53:47.203Z,10.47
2023-01-06T23:56:16.176Z,10.45
2023-01-06T23:58:46.441Z,10.45
